sensor_id;sensor_type;location;lat;lon;timestamp;P1;durP1;ratioP1;P2;durP2;ratioP2
9256;SDS011;4665;51.368;6.782;2023-04-26T00:01:05;5.13;;;2.40;;
9256;SDS011;4665;51.368;6.782;2023-04-26T00:03:32;2.63;;;2.27;;
9256;SDS011;4665;51.368;6.782;2023-04-26T00:05:58;2.40;;;1.93;;
9256;SDS011;4665;51.368;6.782;2023-04-26T00:08:29;2.97;;;2.30;;
9256;SDS011;4665;51.368;6.782;2023-04-26T00:10:55;2.33;;;2.13;;
9256;SDS011;4665;51.368;6.782;2023-04-26T00:13:20;2.80;;;2.10;;
9256;SDS011;4665;51.368;6.782;2023-04-26T00:15:46;5.80;;;2.17;;
9256;SDS011;4665;51.368;6.782;2023-04-26T00:18:11;3.03;;;2.20;;
9256;SDS011;4665;51.368;6.782;2023-04-26T00:20:36;3.97;;;1.90;;
9256;SDS011;4665;51.368;6.782;2023-04-26T00:23:02;2.83;;;2.20;;
9256;SDS011;4665;51.368;6.782;2023-04-26T00:25:28;3.67;;;2.30;;
9256;SDS011;4665;51.368;6.782;2023-04-26T00:27:53;4.83;;;2.27;;
9256;SDS011;4665;51.368;6.782;2023-04-26T00:30:19;2.10;;;1.90;;
9256;SDS011;4665;51.368;6.782;2023-04-26T00:32:45;2.27;;;1.80;;
9256;SDS011;4665;51.368;6.782;2023-04-26T00:35:11;3.37;;;2.70;;
9256;SDS011;4665;51.368;6.782;2023-04-26T00:37:37;3.30;;;2.50;;
9256;SDS011;4665;51.368;6.782;2023-04-26T00:40:03;2.60;;;2.10;;
9256;SDS011;4665;51.368;6.782;2023-04-26T00:42:30;3.17;;;2.30;;
9256;SDS011;4665;51.368;6.782;2023-04-26T00:44:55;2.07;;;1.80;;
9256;SDS011;4665;51.368;6.782;2023-04-26T00:47:21;4.10;;;2.20;;
9256;SDS011;4665;51.368;6.782;2023-04-26T00:49:48;4.80;;;2.23;;
9256;SDS011;4665;51.368;6.782;2023-04-26T00:52:14;3.30;;;2.07;;
9256;SDS011;4665;51.368;6.782;2023-04-26T00:54:39;3.23;;;2.10;;
9256;SDS011;4665;51.368;6.782;2023-04-26T00:57:05;2.43;;;2.23;;
9256;SDS011;4665;51.368;6.782;2023-04-26T00:59:33;2.60;;;2.40;;
9256;SDS011;4665;51.368;6.782;2023-04-26T01:02:01;2.63;;;2.10;;
9256;SDS011;4665;51.368;6.782;2023-04-26T01:04:27;3.43;;;1.90;;
9256;SDS011;4665;51.368;6.782;2023-04-26T01:06:54;2.37;;;2.17;;
9256;SDS011;4665;51.368;6.782;2023-04-26T01:09:20;2.60;;;2.30;;
9256;SDS011;4665;51.368;6.782;2023-04-26T01:11:46;2.50;;;1.80;;
9256;SDS011;4665;51.368;6.782;2023-04-26T01:14:11;2.53;;;2.33;;
9256;SDS011;4665;51.368;6.782;2023-04-26T01:16:39;2.67;;;2.00;;
9256;SDS011;4665;51.368;6.782;2023-04-26T01:19:08;2.57;;;2.20;;
9256;SDS011;4665;51.368;6.782;2023-04-26T01:21:38;4.10;;;2.47;;
9256;SDS011;4665;51.368;6.782;2023-04-26T01:24:04;3.30;;;2.20;;
9256;SDS011;4665;51.368;6.782;2023-04-26T01:26:30;3.73;;;2.20;;
9256;SDS011;4665;51.368;6.782;2023-04-26T01:28:56;3.70;;;2.17;;
9256;SDS011;4665;51.368;6.782;2023-04-26T01:31:22;2.53;;;2.03;;
9256;SDS011;4665;51.368;6.782;2023-04-26T01:33:48;3.93;;;2.00;;
9256;SDS011;4665;51.368;6.782;2023-04-26T01:36:13;3.00;;;1.90;;
9256;SDS011;4665;51.368;6.782;2023-04-26T01:38:38;2.23;;;2.03;;
9256;SDS011;4665;51.368;6.782;2023-04-26T01:41:04;2.77;;;2.40;;
9256;SDS011;4665;51.368;6.782;2023-04-26T01:43:29;2.83;;;2.13;;
9256;SDS011;4665;51.368;6.782;2023-04-26T01:45:54;2.53;;;2.20;;
9256;SDS011;4665;51.368;6.782;2023-04-26T01:48:20;2.60;;;2.00;;
9256;SDS011;4665;51.368;6.782;2023-04-26T01:50:45;2.77;;;2.10;;
9256;SDS011;4665;51.368;6.782;2023-04-26T01:53:11;2.50;;;2.30;;
9256;SDS011;4665;51.368;6.782;2023-04-26T01:55:36;3.00;;;1.90;;
9256;SDS011;4665;51.368;6.782;2023-04-26T01:58:02;3.60;;;2.20;;
9256;SDS011;4665;51.368;6.782;2023-04-26T02:00:27;2.93;;;2.27;;
9256;SDS011;4665;51.368;6.782;2023-04-26T02:02:53;2.83;;;2.40;;
9256;SDS011;4665;51.368;6.782;2023-04-26T02:05:20;5.23;;;2.20;;
9256;SDS011;4665;51.368;6.782;2023-04-26T02:07:46;2.77;;;2.23;;
9256;SDS011;4665;51.368;6.782;2023-04-26T02:10:11;3.63;;;2.33;;
9256;SDS011;4665;51.368;6.782;2023-04-26T02:12:37;2.07;;;1.90;;
9256;SDS011;4665;51.368;6.782;2023-04-26T02:15:02;3.73;;;2.30;;
9256;SDS011;4665;51.368;6.782;2023-04-26T02:17:28;2.10;;;2.00;;
9256;SDS011;4665;51.368;6.782;2023-04-26T02:19:54;6.07;;;2.30;;
9256;SDS011;4665;51.368;6.782;2023-04-26T02:22:20;6.13;;;2.53;;
9256;SDS011;4665;51.368;6.782;2023-04-26T02:24:48;3.07;;;2.20;;
9256;SDS011;4665;51.368;6.782;2023-04-26T02:27:14;3.80;;;2.43;;
9256;SDS011;4665;51.368;6.782;2023-04-26T02:29:40;3.67;;;2.50;;
9256;SDS011;4665;51.368;6.782;2023-04-26T02:32:06;3.77;;;2.50;;
9256;SDS011;4665;51.368;6.782;2023-04-26T02:34:31;3.17;;;2.00;;
9256;SDS011;4665;51.368;6.782;2023-04-26T02:36:57;4.57;;;2.13;;
9256;SDS011;4665;51.368;6.782;2023-04-26T02:39:22;2.60;;;2.40;;
9256;SDS011;4665;51.368;6.782;2023-04-26T02:41:48;3.30;;;2.20;;
9256;SDS011;4665;51.368;6.782;2023-04-26T02:44:13;2.70;;;2.47;;
9256;SDS011;4665;51.368;6.782;2023-04-26T02:46:39;4.57;;;2.63;;
9256;SDS011;4665;51.368;6.782;2023-04-26T02:49:04;2.83;;;2.40;;
9256;SDS011;4665;51.368;6.782;2023-04-26T02:51:30;3.30;;;2.30;;
9256;SDS011;4665;51.368;6.782;2023-04-26T02:53:57;3.60;;;2.47;;
9256;SDS011;4665;51.368;6.782;2023-04-26T02:56:23;5.90;;;2.93;;
9256;SDS011;4665;51.368;6.782;2023-04-26T02:58:48;3.07;;;2.40;;
9256;SDS011;4665;51.368;6.782;2023-04-26T03:01:14;3.60;;;2.60;;
9256;SDS011;4665;51.368;6.782;2023-04-26T03:03:39;4.33;;;2.50;;
9256;SDS011;4665;51.368;6.782;2023-04-26T03:06:05;3.23;;;2.73;;
9256;SDS011;4665;51.368;6.782;2023-04-26T03:08:30;3.87;;;2.60;;
9256;SDS011;4665;51.368;6.782;2023-04-26T03:10:58;3.07;;;2.50;;
9256;SDS011;4665;51.368;6.782;2023-04-26T03:13:24;4.73;;;2.83;;
9256;SDS011;4665;51.368;6.782;2023-04-26T03:15:50;5.40;;;2.97;;
9256;SDS011;4665;51.368;6.782;2023-04-26T03:18:16;3.80;;;3.07;;
9256;SDS011;4665;51.368;6.782;2023-04-26T03:20:42;6.00;;;3.10;;
9256;SDS011;4665;51.368;6.782;2023-04-26T03:23:07;4.97;;;2.80;;
9256;SDS011;4665;51.368;6.782;2023-04-26T03:25:33;4.80;;;2.83;;
9256;SDS011;4665;51.368;6.782;2023-04-26T03:27:58;4.47;;;3.10;;
9256;SDS011;4665;51.368;6.782;2023-04-26T03:30:24;3.23;;;2.73;;
9256;SDS011;4665;51.368;6.782;2023-04-26T03:32:49;2.77;;;2.57;;
9256;SDS011;4665;51.368;6.782;2023-04-26T03:35:16;3.23;;;2.77;;
9256;SDS011;4665;51.368;6.782;2023-04-26T03:37:41;4.17;;;2.63;;
9256;SDS011;4665;51.368;6.782;2023-04-26T03:40:07;3.23;;;2.93;;
9256;SDS011;4665;51.368;6.782;2023-04-26T03:42:33;5.33;;;2.93;;
9256;SDS011;4665;51.368;6.782;2023-04-26T03:45:00;4.43;;;3.37;;
9256;SDS011;4665;51.368;6.782;2023-04-26T03:47:25;4.23;;;3.07;;
9256;SDS011;4665;51.368;6.782;2023-04-26T03:49:51;6.20;;;3.17;;
9256;SDS011;4665;51.368;6.782;2023-04-26T03:52:16;4.00;;;2.90;;
9256;SDS011;4665;51.368;6.782;2023-04-26T03:54:42;3.27;;;2.80;;
9256;SDS011;4665;51.368;6.782;2023-04-26T03:57:07;3.50;;;2.80;;
9256;SDS011;4665;51.368;6.782;2023-04-26T03:59:32;8.93;;;3.10;;
9256;SDS011;4665;51.368;6.782;2023-04-26T04:01:58;4.50;;;3.10;;
9256;SDS011;4665;51.368;6.782;2023-04-26T04:04:23;2.73;;;2.53;;
9256;SDS011;4665;51.368;6.782;2023-04-26T04:06:49;5.43;;;3.20;;
9256;SDS011;4665;51.368;6.782;2023-04-26T04:09:14;5.27;;;3.40;;
9256;SDS011;4665;51.368;6.782;2023-04-26T04:11:40;4.80;;;3.20;;
9256;SDS011;4665;51.368;6.782;2023-04-26T04:14:05;3.70;;;3.00;;
9256;SDS011;4665;51.368;6.782;2023-04-26T04:16:31;6.87;;;3.23;;
9256;SDS011;4665;51.368;6.782;2023-04-26T04:18:56;5.03;;;3.20;;
9256;SDS011;4665;51.368;6.782;2023-04-26T04:21:22;7.67;;;3.87;;
9256;SDS011;4665;51.368;6.782;2023-04-26T04:23:48;4.10;;;3.20;;
9256;SDS011;4665;51.368;6.782;2023-04-26T04:26:14;3.03;;;2.80;;
9256;SDS011;4665;51.368;6.782;2023-04-26T04:28:40;4.40;;;3.20;;
9256;SDS011;4665;51.368;6.782;2023-04-26T04:31:05;3.20;;;2.90;;
9256;SDS011;4665;51.368;6.782;2023-04-26T04:33:34;3.73;;;2.93;;
9256;SDS011;4665;51.368;6.782;2023-04-26T04:35:59;4.67;;;3.17;;
9256;SDS011;4665;51.368;6.782;2023-04-26T04:38:25;3.27;;;2.97;;
9256;SDS011;4665;51.368;6.782;2023-04-26T04:40:50;4.27;;;3.10;;
9256;SDS011;4665;51.368;6.782;2023-04-26T04:43:16;5.53;;;3.30;;
9256;SDS011;4665;51.368;6.782;2023-04-26T04:45:41;5.20;;;3.07;;
9256;SDS011;4665;51.368;6.782;2023-04-26T04:48:07;5.07;;;3.53;;
9256;SDS011;4665;51.368;6.782;2023-04-26T04:50:33;3.57;;;3.13;;
9256;SDS011;4665;51.368;6.782;2023-04-26T04:52:59;3.57;;;3.27;;
9256;SDS011;4665;51.368;6.782;2023-04-26T04:55:25;4.37;;;2.97;;
9256;SDS011;4665;51.368;6.782;2023-04-26T04:57:51;4.60;;;3.40;;
9256;SDS011;4665;51.368;6.782;2023-04-26T05:00:16;3.77;;;3.17;;
9256;SDS011;4665;51.368;6.782;2023-04-26T05:02:42;4.27;;;3.30;;
9256;SDS011;4665;51.368;6.782;2023-04-26T05:05:08;4.73;;;3.47;;
9256;SDS011;4665;51.368;6.782;2023-04-26T05:07:34;4.17;;;3.77;;
9256;SDS011;4665;51.368;6.782;2023-04-26T05:10:00;3.70;;;3.30;;
9256;SDS011;4665;51.368;6.782;2023-04-26T05:12:26;4.33;;;3.60;;
9256;SDS011;4665;51.368;6.782;2023-04-26T05:14:51;4.23;;;3.47;;
9256;SDS011;4665;51.368;6.782;2023-04-26T05:17:17;5.07;;;3.13;;
9256;SDS011;4665;51.368;6.782;2023-04-26T05:19:42;4.40;;;3.80;;
9256;SDS011;4665;51.368;6.782;2023-04-26T05:22:08;7.40;;;3.37;;
9256;SDS011;4665;51.368;6.782;2023-04-26T05:24:33;3.60;;;3.13;;
9256;SDS011;4665;51.368;6.782;2023-04-26T05:26:58;7.73;;;3.90;;
9256;SDS011;4665;51.368;6.782;2023-04-26T05:29:30;4.27;;;3.27;;
9256;SDS011;4665;51.368;6.782;2023-04-26T05:31:55;5.03;;;4.07;;
9256;SDS011;4665;51.368;6.782;2023-04-26T05:34:22;6.27;;;4.90;;
9256;SDS011;4665;51.368;6.782;2023-04-26T05:36:48;5.90;;;4.60;;
9256;SDS011;4665;51.368;6.782;2023-04-26T05:39:13;8.03;;;4.80;;
9256;SDS011;4665;51.368;6.782;2023-04-26T05:41:38;8.80;;;5.20;;
9256;SDS011;4665;51.368;6.782;2023-04-26T05:44:04;7.27;;;5.17;;
9256;SDS011;4665;51.368;6.782;2023-04-26T05:46:29;9.17;;;5.23;;
9256;SDS011;4665;51.368;6.782;2023-04-26T05:48:54;6.07;;;5.17;;
9256;SDS011;4665;51.368;6.782;2023-04-26T05:51:20;6.30;;;5.10;;
9256;SDS011;4665;51.368;6.782;2023-04-26T05:53:45;7.40;;;4.70;;
9256;SDS011;4665;51.368;6.782;2023-04-26T05:56:11;6.00;;;4.77;;
9256;SDS011;4665;51.368;6.782;2023-04-26T05:58:36;7.17;;;5.90;;
9256;SDS011;4665;51.368;6.782;2023-04-26T06:01:01;7.47;;;5.57;;
9256;SDS011;4665;51.368;6.782;2023-04-26T06:03:27;8.80;;;5.90;;
9256;SDS011;4665;51.368;6.782;2023-04-26T06:05:52;9.37;;;5.70;;
9256;SDS011;4665;51.368;6.782;2023-04-26T06:08:18;9.80;;;6.80;;
9256;SDS011;4665;51.368;6.782;2023-04-26T06:10:43;8.73;;;6.30;;
9256;SDS011;4665;51.368;6.782;2023-04-26T06:13:08;11.03;;;6.47;;
9256;SDS011;4665;51.368;6.782;2023-04-26T06:15:34;10.33;;;7.03;;
9256;SDS011;4665;51.368;6.782;2023-04-26T06:17:59;10.47;;;5.87;;
9256;SDS011;4665;51.368;6.782;2023-04-26T06:20:25;10.50;;;7.73;;
9256;SDS011;4665;51.368;6.782;2023-04-26T06:22:50;9.67;;;6.77;;
9256;SDS011;4665;51.368;6.782;2023-04-26T06:25:15;11.30;;;7.50;;
9256;SDS011;4665;51.368;6.782;2023-04-26T06:27:41;9.27;;;7.33;;
9256;SDS011;4665;51.368;6.782;2023-04-26T06:30:07;11.57;;;7.20;;
9256;SDS011;4665;51.368;6.782;2023-04-26T06:32:33;12.67;;;8.73;;
9256;SDS011;4665;51.368;6.782;2023-04-26T06:34:58;11.70;;;7.33;;
9256;SDS011;4665;51.368;6.782;2023-04-26T06:37:24;11.77;;;7.47;;
9256;SDS011;4665;51.368;6.782;2023-04-26T06:39:49;13.23;;;8.00;;
9256;SDS011;4665;51.368;6.782;2023-04-26T06:42:14;11.63;;;8.53;;
9256;SDS011;4665;51.368;6.782;2023-04-26T06:44:40;13.63;;;9.00;;
9256;SDS011;4665;51.368;6.782;2023-04-26T06:47:06;13.07;;;9.27;;
9256;SDS011;4665;51.368;6.782;2023-04-26T06:49:33;18.17;;;9.53;;
9256;SDS011;4665;51.368;6.782;2023-04-26T06:51:59;13.17;;;7.80;;
9256;SDS011;4665;51.368;6.782;2023-04-26T06:54:28;11.40;;;7.73;;
9256;SDS011;4665;51.368;6.782;2023-04-26T06:56:55;13.50;;;8.73;;
9256;SDS011;4665;51.368;6.782;2023-04-26T06:59:20;13.10;;;8.30;;
9256;SDS011;4665;51.368;6.782;2023-04-26T07:01:46;15.00;;;8.70;;
9256;SDS011;4665;51.368;6.782;2023-04-26T07:04:11;11.47;;;9.10;;
9256;SDS011;4665;51.368;6.782;2023-04-26T07:06:37;16.33;;;9.10;;
9256;SDS011;4665;51.368;6.782;2023-04-26T07:09:03;11.23;;;7.93;;
9256;SDS011;4665;51.368;6.782;2023-04-26T07:11:29;18.00;;;9.53;;
9256;SDS011;4665;51.368;6.782;2023-04-26T07:13:55;20.17;;;10.07;;
9256;SDS011;4665;51.368;6.782;2023-04-26T07:16:21;13.87;;;8.67;;
9256;SDS011;4665;51.368;6.782;2023-04-26T07:18:46;19.07;;;9.53;;
9256;SDS011;4665;51.368;6.782;2023-04-26T07:21:16;14.63;;;8.93;;
9256;SDS011;4665;51.368;6.782;2023-04-26T07:23:42;14.40;;;8.43;;
9256;SDS011;4665;51.368;6.782;2023-04-26T07:26:09;15.80;;;8.60;;
9256;SDS011;4665;51.368;6.782;2023-04-26T07:28:35;13.57;;;9.03;;
9256;SDS011;4665;51.368;6.782;2023-04-26T07:31:00;17.90;;;9.80;;
9256;SDS011;4665;51.368;6.782;2023-04-26T07:33:26;18.73;;;10.10;;
9256;SDS011;4665;51.368;6.782;2023-04-26T07:35:55;16.70;;;9.10;;
9256;SDS011;4665;51.368;6.782;2023-04-26T07:38:22;15.03;;;10.20;;
9256;SDS011;4665;51.368;6.782;2023-04-26T07:40:48;17.07;;;10.23;;
9256;SDS011;4665;51.368;6.782;2023-04-26T07:43:14;16.97;;;10.00;;
9256;SDS011;4665;51.368;6.782;2023-04-26T07:45:40;17.53;;;9.70;;
9256;SDS011;4665;51.368;6.782;2023-04-26T07:48:06;16.57;;;9.40;;
9256;SDS011;4665;51.368;6.782;2023-04-26T07:50:32;16.93;;;9.50;;
9256;SDS011;4665;51.368;6.782;2023-04-26T07:52:57;11.37;;;8.90;;
9256;SDS011;4665;51.368;6.782;2023-04-26T07:55:23;16.03;;;8.70;;
9256;SDS011;4665;51.368;6.782;2023-04-26T07:57:48;10.63;;;6.90;;
9256;SDS011;4665;51.368;6.782;2023-04-26T08:00:14;15.27;;;7.83;;
9256;SDS011;4665;51.368;6.782;2023-04-26T08:02:43;16.63;;;9.13;;
9256;SDS011;4665;51.368;6.782;2023-04-26T08:05:10;16.67;;;8.53;;
9256;SDS011;4665;51.368;6.782;2023-04-26T08:07:36;12.77;;;8.63;;
9256;SDS011;4665;51.368;6.782;2023-04-26T08:10:01;14.97;;;7.50;;
9256;SDS011;4665;51.368;6.782;2023-04-26T08:12:26;13.63;;;6.37;;
9256;SDS011;4665;51.368;6.782;2023-04-26T08:14:52;10.17;;;5.00;;
9256;SDS011;4665;51.368;6.782;2023-04-26T08:17:18;10.47;;;5.90;;
9256;SDS011;4665;51.368;6.782;2023-04-26T08:19:43;7.20;;;4.47;;
9256;SDS011;4665;51.368;6.782;2023-04-26T08:22:08;7.50;;;4.60;;
9256;SDS011;4665;51.368;6.782;2023-04-26T08:24:34;5.10;;;4.20;;
9256;SDS011;4665;51.368;6.782;2023-04-26T08:26:59;7.77;;;5.00;;
9256;SDS011;4665;51.368;6.782;2023-04-26T08:29:25;12.17;;;5.67;;
9256;SDS011;4665;51.368;6.782;2023-04-26T08:31:51;9.77;;;5.37;;
9256;SDS011;4665;51.368;6.782;2023-04-26T08:34:17;8.30;;;5.47;;
9256;SDS011;4665;51.368;6.782;2023-04-26T08:36:42;5.90;;;4.87;;
9256;SDS011;4665;51.368;6.782;2023-04-26T08:39:08;7.77;;;4.80;;
9256;SDS011;4665;51.368;6.782;2023-04-26T08:41:44;12.77;;;5.33;;
9256;SDS011;4665;51.368;6.782;2023-04-26T08:44:13;6.37;;;4.23;;
9256;SDS011;4665;51.368;6.782;2023-04-26T08:46:45;4.93;;;4.00;;
9256;SDS011;4665;51.368;6.782;2023-04-26T08:51:44;11.13;;;5.13;;
9256;SDS011;4665;51.368;6.782;2023-04-26T08:54:11;9.63;;;6.30;;
9256;SDS011;4665;51.368;6.782;2023-04-26T08:56:38;9.43;;;5.67;;
9256;SDS011;4665;51.368;6.782;2023-04-26T08:59:05;8.97;;;6.03;;
9256;SDS011;4665;51.368;6.782;2023-04-26T09:01:32;12.03;;;6.40;;
9256;SDS011;4665;51.368;6.782;2023-04-26T09:03:58;8.00;;;5.10;;
9256;SDS011;4665;51.368;6.782;2023-04-26T09:06:24;8.13;;;4.50;;
9256;SDS011;4665;51.368;6.782;2023-04-26T09:08:52;10.23;;;5.60;;
9256;SDS011;4665;51.368;6.782;2023-04-26T09:11:20;10.67;;;5.67;;
9256;SDS011;4665;51.368;6.782;2023-04-26T09:13:46;5.87;;;4.87;;
9256;SDS011;4665;51.368;6.782;2023-04-26T09:16:11;5.70;;;4.10;;
9256;SDS011;4665;51.368;6.782;2023-04-26T09:18:45;7.20;;;4.30;;
9256;SDS011;4665;51.368;6.782;2023-04-26T09:21:13;9.33;;;4.27;;
9256;SDS011;4665;51.368;6.782;2023-04-26T09:23:57;10.23;;;4.47;;
9256;SDS011;4665;51.368;6.782;2023-04-26T09:26:23;7.90;;;4.67;;
9256;SDS011;4665;51.368;6.782;2023-04-26T09:28:50;8.53;;;4.37;;
9256;SDS011;4665;51.368;6.782;2023-04-26T09:31:36;6.17;;;3.63;;
9256;SDS011;4665;51.368;6.782;2023-04-26T09:34:04;9.43;;;4.50;;
9256;SDS011;4665;51.368;6.782;2023-04-26T09:36:29;9.53;;;4.83;;
9256;SDS011;4665;51.368;6.782;2023-04-26T09:38:55;7.87;;;3.93;;
9256;SDS011;4665;51.368;6.782;2023-04-26T09:41:21;6.17;;;4.10;;
9256;SDS011;4665;51.368;6.782;2023-04-26T09:43:49;7.67;;;4.10;;
9256;SDS011;4665;51.368;6.782;2023-04-26T09:46:22;8.03;;;4.60;;
9256;SDS011;4665;51.368;6.782;2023-04-26T09:48:59;6.30;;;4.20;;
9256;SDS011;4665;51.368;6.782;2023-04-26T09:51:25;5.40;;;4.50;;
9256;SDS011;4665;51.368;6.782;2023-04-26T09:53:50;4.33;;;3.17;;
9256;SDS011;4665;51.368;6.782;2023-04-26T09:56:17;5.37;;;3.80;;
9256;SDS011;4665;51.368;6.782;2023-04-26T10:01:16;8.53;;;3.30;;
9256;SDS011;4665;51.368;6.782;2023-04-26T10:03:43;7.07;;;3.70;;
9256;SDS011;4665;51.368;6.782;2023-04-26T10:06:09;7.03;;;4.07;;
9256;SDS011;4665;51.368;6.782;2023-04-26T10:08:37;5.47;;;3.37;;
9256;SDS011;4665;51.368;6.782;2023-04-26T10:11:03;5.00;;;3.50;;
9256;SDS011;4665;51.368;6.782;2023-04-26T10:13:31;5.23;;;3.83;;
9256;SDS011;4665;51.368;6.782;2023-04-26T10:15:57;4.63;;;3.13;;
9256;SDS011;4665;51.368;6.782;2023-04-26T10:18:24;4.77;;;3.03;;
9256;SDS011;4665;51.368;6.782;2023-04-26T10:20:50;5.70;;;3.23;;
9256;SDS011;4665;51.368;6.782;2023-04-26T10:23:19;7.83;;;3.67;;
9256;SDS011;4665;51.368;6.782;2023-04-26T10:25:49;6.33;;;3.90;;
9256;SDS011;4665;51.368;6.782;2023-04-26T10:28:16;7.10;;;4.03;;
9256;SDS011;4665;51.368;6.782;2023-04-26T10:30:55;4.83;;;3.63;;
9256;SDS011;4665;51.368;6.782;2023-04-26T10:33:22;4.33;;;3.20;;
9256;SDS011;4665;51.368;6.782;2023-04-26T10:36:04;3.47;;;2.77;;
9256;SDS011;4665;51.368;6.782;2023-04-26T10:39:22;5.97;;;3.77;;
9256;SDS011;4665;51.368;6.782;2023-04-26T10:41:41;4.10;;;3.10;;
9256;SDS011;4665;51.368;6.782;2023-04-26T10:47:06;4.63;;;2.83;;
9256;SDS011;4665;51.368;6.782;2023-04-26T10:49:44;8.60;;;2.97;;
9256;SDS011;4665;51.368;6.782;2023-04-26T10:52:13;5.30;;;2.93;;
9256;SDS011;4665;51.368;6.782;2023-04-26T10:54:44;5.63;;;2.77;;
9256;SDS011;4665;51.368;6.782;2023-04-26T10:57:12;5.70;;;2.87;;
9256;SDS011;4665;51.368;6.782;2023-04-26T10:59:38;6.37;;;2.60;;
9256;SDS011;4665;51.368;6.782;2023-04-26T11:02:04;3.77;;;2.37;;
9256;SDS011;4665;51.368;6.782;2023-04-26T11:04:53;5.40;;;2.97;;
9256;SDS011;4665;51.368;6.782;2023-04-26T11:07:37;3.20;;;2.30;;
9256;SDS011;4665;51.368;6.782;2023-04-26T11:10:02;3.93;;;2.33;;
9256;SDS011;4665;51.368;6.782;2023-04-26T11:12:33;5.97;;;2.50;;
9256;SDS011;4665;51.368;6.782;2023-04-26T11:14:58;8.10;;;3.10;;
9256;SDS011;4665;51.368;6.782;2023-04-26T11:17:24;6.27;;;2.90;;
9256;SDS011;4665;51.368;6.782;2023-04-26T11:19:50;3.43;;;3.13;;
9256;SDS011;4665;51.368;6.782;2023-04-26T11:22:15;6.13;;;3.00;;
9256;SDS011;4665;51.368;6.782;2023-04-26T11:24:45;5.77;;;2.80;;
9256;SDS011;4665;51.368;6.782;2023-04-26T11:27:11;3.40;;;2.50;;
9256;SDS011;4665;51.368;6.782;2023-04-26T11:29:37;3.50;;;2.57;;
9256;SDS011;4665;51.368;6.782;2023-04-26T11:32:02;7.43;;;2.87;;
9256;SDS011;4665;51.368;6.782;2023-04-26T11:34:32;4.83;;;2.27;;
9256;SDS011;4665;51.368;6.782;2023-04-26T11:37:03;4.50;;;2.13;;
9256;SDS011;4665;51.368;6.782;2023-04-26T11:39:30;5.03;;;2.37;;
9256;SDS011;4665;51.368;6.782;2023-04-26T11:44:36;1.80;;;1.70;;
9256;SDS011;4665;51.368;6.782;2023-04-26T11:47:03;3.80;;;2.50;;
9256;SDS011;4665;51.368;6.782;2023-04-26T11:49:30;4.77;;;2.97;;
9256;SDS011;4665;51.368;6.782;2023-04-26T11:51:56;5.13;;;2.90;;
9256;SDS011;4665;51.368;6.782;2023-04-26T11:54:29;5.67;;;3.03;;
9256;SDS011;4665;51.368;6.782;2023-04-26T11:56:58;4.50;;;2.83;;
9256;SDS011;4665;51.368;6.782;2023-04-26T11:59:28;6.60;;;2.70;;
9256;SDS011;4665;51.368;6.782;2023-04-26T12:01:55;2.37;;;2.17;;
9256;SDS011;4665;51.368;6.782;2023-04-26T12:04:28;4.03;;;2.50;;
9256;SDS011;4665;51.368;6.782;2023-04-26T12:06:54;6.10;;;2.63;;
9256;SDS011;4665;51.368;6.782;2023-04-26T12:09:27;3.60;;;2.27;;
9256;SDS011;4665;51.368;6.782;2023-04-26T12:11:57;3.17;;;2.20;;
9256;SDS011;4665;51.368;6.782;2023-04-26T12:14:30;4.77;;;2.40;;
9256;SDS011;4665;51.368;6.782;2023-04-26T12:17:02;3.27;;;2.20;;
9256;SDS011;4665;51.368;6.782;2023-04-26T12:19:36;4.70;;;2.40;;
9256;SDS011;4665;51.368;6.782;2023-04-26T12:22:03;3.40;;;2.73;;
9256;SDS011;4665;51.368;6.782;2023-04-26T12:24:32;2.77;;;2.47;;
9256;SDS011;4665;51.368;6.782;2023-04-26T12:27:00;3.47;;;2.40;;
9256;SDS011;4665;51.368;6.782;2023-04-26T12:29:30;4.73;;;2.57;;
9256;SDS011;4665;51.368;6.782;2023-04-26T12:31:57;3.47;;;2.40;;
9256;SDS011;4665;51.368;6.782;2023-04-26T12:34:23;2.87;;;2.23;;
9256;SDS011;4665;51.368;6.782;2023-04-26T12:36:49;2.57;;;2.27;;
9256;SDS011;4665;51.368;6.782;2023-04-26T12:39:14;3.97;;;2.40;;
9256;SDS011;4665;51.368;6.782;2023-04-26T12:41:40;2.83;;;2.40;;
9256;SDS011;4665;51.368;6.782;2023-04-26T12:44:07;2.93;;;2.63;;
9256;SDS011;4665;51.368;6.782;2023-04-26T12:46:32;3.57;;;2.57;;
9256;SDS011;4665;51.368;6.782;2023-04-26T12:48:58;5.13;;;2.57;;
9256;SDS011;4665;51.368;6.782;2023-04-26T12:51:24;3.43;;;2.87;;
9256;SDS011;4665;51.368;6.782;2023-04-26T12:53:49;5.97;;;2.73;;
9256;SDS011;4665;51.368;6.782;2023-04-26T12:56:15;3.80;;;2.57;;
9256;SDS011;4665;51.368;6.782;2023-04-26T12:58:40;2.10;;;2.00;;
9256;SDS011;4665;51.368;6.782;2023-04-26T13:01:06;2.63;;;2.43;;
9256;SDS011;4665;51.368;6.782;2023-04-26T13:03:31;3.57;;;2.47;;
9256;SDS011;4665;51.368;6.782;2023-04-26T13:05:56;6.50;;;2.83;;
9256;SDS011;4665;51.368;6.782;2023-04-26T13:08:22;3.77;;;2.50;;
9256;SDS011;4665;51.368;6.782;2023-04-26T13:10:48;4.43;;;3.33;;
9256;SDS011;4665;51.368;6.782;2023-04-26T13:13:14;3.47;;;3.13;;
9256;SDS011;4665;51.368;6.782;2023-04-26T13:15:39;4.03;;;2.70;;
9256;SDS011;4665;51.368;6.782;2023-04-26T13:18:04;3.43;;;2.70;;
9256;SDS011;4665;51.368;6.782;2023-04-26T13:20:30;3.70;;;2.60;;
9256;SDS011;4665;51.368;6.782;2023-04-26T13:22:56;3.83;;;2.67;;
9256;SDS011;4665;51.368;6.782;2023-04-26T13:25:21;5.20;;;3.03;;
9256;SDS011;4665;51.368;6.782;2023-04-26T13:27:47;3.83;;;2.80;;
9256;SDS011;4665;51.368;6.782;2023-04-26T13:30:13;2.97;;;2.67;;
9256;SDS011;4665;51.368;6.782;2023-04-26T13:32:38;3.53;;;2.53;;
9256;SDS011;4665;51.368;6.782;2023-04-26T13:35:04;2.90;;;2.70;;
9256;SDS011;4665;51.368;6.782;2023-04-26T13:37:30;2.70;;;2.50;;
9256;SDS011;4665;51.368;6.782;2023-04-26T13:39:55;5.70;;;2.73;;
9256;SDS011;4665;51.368;6.782;2023-04-26T13:42:22;4.17;;;3.00;;
9256;SDS011;4665;51.368;6.782;2023-04-26T13:44:48;5.33;;;2.87;;
9256;SDS011;4665;51.368;6.782;2023-04-26T13:47:15;3.70;;;2.90;;
9256;SDS011;4665;51.368;6.782;2023-04-26T13:49:41;4.00;;;3.07;;
9256;SDS011;4665;51.368;6.782;2023-04-26T13:52:08;3.80;;;2.87;;
9256;SDS011;4665;51.368;6.782;2023-04-26T13:54:34;2.83;;;2.50;;
9256;SDS011;4665;51.368;6.782;2023-04-26T13:57:04;3.57;;;2.67;;
9256;SDS011;4665;51.368;6.782;2023-04-26T13:59:30;3.13;;;2.50;;
9256;SDS011;4665;51.368;6.782;2023-04-26T14:01:56;7.30;;;3.50;;
9256;SDS011;4665;51.368;6.782;2023-04-26T14:04:21;6.03;;;3.37;;
9256;SDS011;4665;51.368;6.782;2023-04-26T14:06:47;7.23;;;3.03;;
9256;SDS011;4665;51.368;6.782;2023-04-26T14:09:12;4.17;;;3.27;;
9256;SDS011;4665;51.368;6.782;2023-04-26T14:11:37;4.63;;;3.20;;
9256;SDS011;4665;51.368;6.782;2023-04-26T14:14:03;6.03;;;3.63;;
9256;SDS011;4665;51.368;6.782;2023-04-26T14:16:29;3.47;;;2.90;;
9256;SDS011;4665;51.368;6.782;2023-04-26T14:18:54;5.90;;;3.10;;
9256;SDS011;4665;51.368;6.782;2023-04-26T14:21:19;4.20;;;2.60;;
9256;SDS011;4665;51.368;6.782;2023-04-26T14:23:45;3.53;;;2.50;;
9256;SDS011;4665;51.368;6.782;2023-04-26T14:26:10;4.33;;;3.03;;
9256;SDS011;4665;51.368;6.782;2023-04-26T14:28:36;3.43;;;3.00;;
9256;SDS011;4665;51.368;6.782;2023-04-26T14:31:02;4.37;;;3.43;;
9256;SDS011;4665;51.368;6.782;2023-04-26T14:33:27;4.30;;;2.87;;
9256;SDS011;4665;51.368;6.782;2023-04-26T14:35:53;4.10;;;3.13;;
9256;SDS011;4665;51.368;6.782;2023-04-26T14:38:19;3.43;;;2.70;;
9256;SDS011;4665;51.368;6.782;2023-04-26T14:40:45;4.77;;;3.03;;
9256;SDS011;4665;51.368;6.782;2023-04-26T14:43:10;4.63;;;2.90;;
9256;SDS011;4665;51.368;6.782;2023-04-26T14:45:36;3.43;;;2.80;;
9256;SDS011;4665;51.368;6.782;2023-04-26T14:48:01;3.80;;;3.20;;
9256;SDS011;4665;51.368;6.782;2023-04-26T14:50:27;2.83;;;2.63;;
9256;SDS011;4665;51.368;6.782;2023-04-26T14:52:53;4.90;;;2.90;;
9256;SDS011;4665;51.368;6.782;2023-04-26T14:55:19;5.30;;;2.57;;
9256;SDS011;4665;51.368;6.782;2023-04-26T14:57:48;5.63;;;2.80;;
9256;SDS011;4665;51.368;6.782;2023-04-26T15:00:14;4.43;;;3.40;;
9256;SDS011;4665;51.368;6.782;2023-04-26T15:02:41;4.00;;;2.97;;
9256;SDS011;4665;51.368;6.782;2023-04-26T15:05:07;4.33;;;2.57;;
9256;SDS011;4665;51.368;6.782;2023-04-26T15:07:34;3.93;;;3.00;;
9256;SDS011;4665;51.368;6.782;2023-04-26T15:10:00;3.73;;;2.67;;
9256;SDS011;4665;51.368;6.782;2023-04-26T15:12:26;3.63;;;2.77;;
9256;SDS011;4665;51.368;6.782;2023-04-26T15:14:51;4.90;;;2.97;;
9256;SDS011;4665;51.368;6.782;2023-04-26T15:17:17;3.43;;;2.87;;
9256;SDS011;4665;51.368;6.782;2023-04-26T15:19:42;4.33;;;2.80;;